createdAt,value
2022-09-10T00:01:06.277Z,13.52
2022-09-10T00:03:32.880Z,13.49
2022-09-10T00:05:59.447Z,13.46
2022-09-10T00:08:26.451Z,13.42
2022-09-10T00:10:53.077Z,13.38
2022-09-10T00:13:21.922Z,13.39
2022-09-10T00:15:51.205Z,13.43
2022-09-10T00:18:19.627Z,13.41
2022-09-10T00:20:51.295Z,13.45
2022-09-10T00:23:20.147Z,13.39
2022-09-10T00:25:50.844Z,13.38
2022-09-10T00:28:21.718Z,13.35
2022-09-10T00:30:50.093Z,13.43
2022-09-10T00:33:18.278Z,13.43
2022-09-10T00:35:47.528Z,13.34
2022-09-10T00:38:15.084Z,13.40
2022-09-10T00:40:44.526Z,13.39
2022-09-10T00:43:16.766Z,13.36
2022-09-10T00:45:44.477Z,13.42
2022-09-10T00:48:28.594Z,13.39
2022-09-10T00:50:55.429Z,13.40
2022-09-10T00:53:24.457Z,13.41
2022-09-10T00:55:53.903Z,13.45
2022-09-10T00:58:22.727Z,13.45
2022-09-10T01:00:51.356Z,13.46
2022-09-10T01:03:22.421Z,13.49
2022-09-10T01:05:51.600Z,13.53
2022-09-10T01:08:20.681Z,13.56
2022-09-10T01:11:16.887Z,13.55
2022-09-10T01:13:55.925Z,13.54
2022-09-10T01:16:40.439Z,13.61
2022-09-10T01:19:13.043Z,13.58
2022-09-10T01:22:17.307Z,13.63
2022-09-10T01:24:54.489Z,13.63
2022-09-10T01:27:35.582Z,13.70
2022-09-10T01:30:10.275Z,13.71
2022-09-10T01:32:56.311Z,13.66
2022-09-10T01:35:40.263Z,13.73
2022-09-10T01:38:19.036Z,13.65
2022-09-10T01:40:46.544Z,13.64
2022-09-10T01:43:17.187Z,13.59
2022-09-10T01:45:54.608Z,13.65
2022-09-10T01:48:59.890Z,13.73
2022-09-10T01:51:40.616Z,13.66
2022-09-10T01:54:26.327Z,13.78
2022-09-10T01:56:59.591Z,13.70
2022-09-10T02:00:10.375Z,13.73
2022-09-10T02:03:01.881Z,13.73
2022-09-10T02:05:35.195Z,13.80
2022-09-10T02:08:08.978Z,13.75
2022-09-10T02:10:49.526Z,13.76
2022-09-10T02:13:16.252Z,13.84
2022-09-10T02:15:56.683Z,13.84
2022-09-10T02:18:26.361Z,13.85
2022-09-10T02:20:55.993Z,13.77
2022-09-10T02:23:27.351Z,13.77
2022-09-10T02:25:54.149Z,13.82
2022-09-10T02:28:26.795Z,13.77
2022-09-10T02:30:55.879Z,13.74
2022-09-10T02:33:22.541Z,13.69
2022-09-10T02:35:49.953Z,13.69
2022-09-10T02:38:18.122Z,13.66
2022-09-10T02:40:49.699Z,13.68
2022-09-10T02:43:17.375Z,13.66
2022-09-10T02:45:44.666Z,13.64
2022-09-10T02:48:11.429Z,13.55
2022-09-10T02:50:39.006Z,13.61
2022-09-10T02:53:06.914Z,13.65
2022-09-10T02:55:33.505Z,13.64
2022-09-10T02:58:00.102Z,13.64
2022-09-10T03:00:26.659Z,13.63
2022-09-10T03:03:00.871Z,13.63
2022-09-10T03:05:29.555Z,13.56
2022-09-10T03:07:57.369Z,13.55
2022-09-10T03:10:24.452Z,13.56
2022-09-10T03:12:51.044Z,13.52
2022-09-10T03:15:20.524Z,13.51
2022-09-10T03:17:48.089Z,13.49
2022-09-10T03:20:15.039Z,13.46
2022-09-10T03:22:41.611Z,13.41
2022-09-10T03:25:11.679Z,13.40
2022-09-10T03:27:38.563Z,13.38
2022-09-10T03:30:08.273Z,13.37
2022-09-10T03:32:35.015Z,13.35
2022-09-10T03:35:01.639Z,13.43
2022-09-10T03:37:28.512Z,13.36
2022-09-10T03:39:59.648Z,13.35
2022-09-10T03:42:31.163Z,13.40
2022-09-10T03:44:58.201Z,13.40
2022-09-10T03:47:25.143Z,13.37
2022-09-10T03:49:54.036Z,13.32
2022-09-10T03:52:22.891Z,13.30
2022-09-10T03:54:51.089Z,13.25
2022-09-10T03:57:17.864Z,13.21
2022-09-10T03:59:46.800Z,13.18
2022-09-10T04:02:14.609Z,13.15
2022-09-10T04:04:41.440Z,13.18
2022-09-10T04:07:10.443Z,13.17
2022-09-10T04:09:37.209Z,13.14
2022-09-10T04:12:04.028Z,13.15
2022-09-10T04:14:32.573Z,13.15
2022-09-10T04:17:00.829Z,13.18
2022-09-10T04:19:30.373Z,13.22
2022-09-10T04:21:59.131Z,13.24
2022-09-10T04:24:25.829Z,13.32
2022-09-10T04:26:52.529Z,13.34
2022-09-10T04:29:19.170Z,13.45
2022-09-10T04:31:46.812Z,13.34
2022-09-10T04:34:16.420Z,13.34
2022-09-10T04:36:43.196Z,13.29
2022-09-10T04:39:10.069Z,13.24
2022-09-10T04:41:38.980Z,13.26
2022-09-10T04:44:06.929Z,13.23
2022-09-10T04:46:35.063Z,13.20
2022-09-10T04:49:03.345Z,13.23
2022-09-10T04:51:31.283Z,13.26
2022-09-10T04:53:59.376Z,13.29
2022-09-10T04:56:30.914Z,13.32
2022-09-10T04:58:58.433Z,13.30
2022-09-10T05:01:26.349Z,13.31
2022-09-10T05:03:53.534Z,13.33
2022-09-10T05:06:23.324Z,13.33
2022-09-10T05:08:50.697Z,13.37
2022-09-10T05:11:19.637Z,13.35
2022-09-10T05:13:46.498Z,13.32
2022-09-10T05:16:16.768Z,13.36
2022-09-10T05:18:44.396Z,13.45
2022-09-10T05:21:11.231Z,13.47
2022-09-10T05:23:40.589Z,13.43
2022-09-10T05:26:08.409Z,13.47
2022-09-10T05:28:37.470Z,13.48
2022-09-10T05:31:07.225Z,13.51
2022-09-10T05:33:34.507Z,13.58
2022-09-10T05:36:01.164Z,13.72
2022-09-10T05:38:28.607Z,13.77
2022-09-10T05:40:57.777Z,13.77
2022-09-10T05:43:24.398Z,13.84
2022-09-10T05:45:52.297Z,13.93
2022-09-10T05:48:35.990Z,14.04
2022-09-10T05:51:06.288Z,14.20
2022-09-10T05:53:41.703Z,14.17
2022-09-10T05:56:08.638Z,14.25
2022-09-10T05:58:36.614Z,14.28
2022-09-10T06:01:11.203Z,14.35
2022-09-10T06:03:40.422Z,14.53
2022-09-10T06:06:07.701Z,15.00
2022-09-10T06:08:37.258Z,15.82
2022-09-10T06:11:20.510Z,16.25
2022-09-10T06:13:49.895Z,16.43
2022-09-10T06:16:18.207Z,17.23
2022-09-10T06:18:45.289Z,17.11
2022-09-10T06:21:17.312Z,17.25
2022-09-10T06:23:46.401Z,17.13
2022-09-10T06:26:18.504Z,17.08
2022-09-10T06:28:46.658Z,17.00
2022-09-10T06:31:20.138Z,16.72
2022-09-10T06:33:49.603Z,16.23
2022-09-10T06:36:19.982Z,16.54
2022-09-10T06:38:49.535Z,16.30
2022-09-10T06:41:17.224Z,16.21
2022-09-10T06:44:06.753Z,16.06
2022-09-10T06:47:30.507Z,15.78
2022-09-10T06:49:25.092Z,15.68
2022-09-10T06:51:52.280Z,15.64
2022-09-10T06:54:19.086Z,15.54
2022-09-10T06:56:48.788Z,15.51
2022-09-10T06:59:16.987Z,15.64
2022-09-10T07:01:47.528Z,15.91
2022-09-10T07:04:20.391Z,16.37
2022-09-10T07:06:48.606Z,16.66
2022-09-10T07:09:16.329Z,16.53
2022-09-10T07:11:51.925Z,16.43
2022-09-10T07:14:19.377Z,16.48
2022-09-10T07:16:47.489Z,16.49
2022-09-10T07:19:21.794Z,16.68
2022-09-10T07:21:50.100Z,16.57
2022-09-10T07:24:17.127Z,16.59
2022-09-10T07:26:59.395Z,16.57
2022-09-10T07:29:26.534Z,16.54
2022-09-10T07:31:53.981Z,16.65
2022-09-10T07:34:26.387Z,16.90
2022-09-10T07:36:53.253Z,16.58
2022-09-10T07:39:25.784Z,17.07
2022-09-10T07:42:02.646Z,17.48
2022-09-10T07:44:41.028Z,17.18
2022-09-10T07:47:07.628Z,16.54
2022-09-10T07:49:34.597Z,16.63
2022-09-10T07:52:03.628Z,16.62
2022-09-10T07:54:36.829Z,16.80
2022-09-10T07:57:05.174Z,16.76
2022-09-10T07:59:32.838Z,17.07
2022-09-10T08:02:02.107Z,17.05
2022-09-10T08:04:42.005Z,17.08
2022-09-10T08:07:11.161Z,16.75
2022-09-10T08:09:40.271Z,16.83
2022-09-10T08:12:09.543Z,16.86
2022-09-10T08:14:38.933Z,17.11
2022-09-10T08:17:06.057Z,17.46
2022-09-10T08:19:37.782Z,17.51
2022-09-10T08:22:04.420Z,17.80
2022-09-10T08:24:37.781Z,17.83
2022-09-10T08:27:04.603Z,17.80
2022-09-10T08:29:31.772Z,17.76
2022-09-10T08:31:59.485Z,17.51
2022-09-10T08:34:30.825Z,17.54
2022-09-10T08:37:05.076Z,17.81
2022-09-10T08:39:36.798Z,17.27
2022-09-10T08:42:21.967Z,17.72
2022-09-10T08:44:53.984Z,17.88
2022-09-10T08:47:31.167Z,18.19
2022-09-10T08:50:11.972Z,17.77
2022-09-10T08:53:12.979Z,18.01
2022-09-10T08:55:48.710Z,18.01
2022-09-10T08:58:22.802Z,17.84
2022-09-10T09:00:57.140Z,17.72
2022-09-10T09:03:42.985Z,17.45
2022-09-10T09:06:41.189Z,17.38
2022-09-10T09:09:14.799Z,17.29
2022-09-10T09:12:15.610Z,17.14
2022-09-10T09:14:45.806Z,16.90
2022-09-10T09:17:22.320Z,16.57
2022-09-10T09:20:10.611Z,16.53
2022-09-10T09:22:52.496Z,16.75
2022-09-10T09:25:30.272Z,16.88
2022-09-10T09:27:57.603Z,17.16
2022-09-10T09:30:42.105Z,16.97
2022-09-10T09:33:22.678Z,17.00
2022-09-10T09:36:17.513Z,17.11
2022-09-10T09:38:48.362Z,17.28
2022-09-10T09:41:23.880Z,17.55
2022-09-10T09:43:58.916Z,17.44
2022-09-10T09:46:26.410Z,17.73
2022-09-10T09:49:01.931Z,18.11
2022-09-10T09:51:35.717Z,18.36
2022-09-10T09:56:58.159Z,18.24
2022-09-10T09:59:34.766Z,18.12
2022-09-10T10:02:10.563Z,18.40
2022-09-10T10:04:41.980Z,18.21
2022-09-10T10:07:09.014Z,18.32
2022-09-10T10:09:42.406Z,18.70
2022-09-10T10:12:19.088Z,17.86
2022-09-10T10:14:45.846Z,17.54
2022-09-10T10:17:31.346Z,17.76
2022-09-10T10:20:00.927Z,17.79
2022-09-10T10:22:30.322Z,17.76
2022-09-10T10:24:56.979Z,18.00
2022-09-10T10:27:35.916Z,18.08
2022-09-10T10:30:11.394Z,17.74
2022-09-10T10:32:46.454Z,17.82
2022-09-10T10:35:33.546Z,17.92
2022-09-10T10:38:27.440Z,18.21
2022-09-10T10:41:12.789Z,18.42
2022-09-10T10:43:45.372Z,18.68
2022-09-10T10:46:21.247Z,18.23
2022-09-10T10:49:16.418Z,18.24
2022-09-10T10:51:55.410Z,18.28
2022-09-10T10:54:28.520Z,18.14
2022-09-10T10:57:20.110Z,17.93
2022-09-10T11:00:01.187Z,18.21
2022-09-10T11:02:44.543Z,18.03
2022-09-10T11:05:31.751Z,18.02
2022-09-10T11:08:19.974Z,17.87
2022-09-10T11:10:50.739Z,18.01
2022-09-10T11:13:27.220Z,18.18
2022-09-10T11:16:02.685Z,18.40
2022-09-10T11:19:03.093Z,18.42
2022-09-10T11:21:51.702Z,18.15
2022-09-10T11:24:41.460Z,18.28
2022-09-10T11:27:35.964Z,18.54
2022-09-10T11:30:10.077Z,18.72
2022-09-10T11:33:01.263Z,18.82
2022-09-10T11:35:44.580Z,18.94
2022-09-10T11:38:36.282Z,19.10
2022-09-10T11:41:14.789Z,19.36
2022-09-10T11:44:36.229Z,19.37
2022-09-10T11:47:36.751Z,19.60
2022-09-10T11:50:07.019Z,19.61
2022-09-10T11:52:36.204Z,19.52
2022-09-10T11:55:08.416Z,19.55
2022-09-10T11:58:00.297Z,19.49
2022-09-10T12:00:29.010Z,19.31
2022-09-10T12:03:09.394Z,19.48
2022-09-10T12:05:57.845Z,19.40
2022-09-10T12:08:51.225Z,19.34
2022-09-10T12:11:47.868Z,19.43
2022-09-10T12:14:17.378Z,19.48
2022-09-10T12:16:45.362Z,19.38
2022-09-10T12:19:29.279Z,19.43
2022-09-10T12:22:01.214Z,19.29
2022-09-10T12:24:37.043Z,19.20
2022-09-10T12:27:05.545Z,19.29
2022-09-10T12:29:40.657Z,19.32
2022-09-10T12:32:19.331Z,19.31
2022-09-10T12:34:49.765Z,19.47
2022-09-10T12:37:25.694Z,19.63
2022-09-10T12:40:26.516Z,19.60
2022-09-10T12:42:59.264Z,19.67
2022-09-10T12:46:00.866Z,19.88
2022-09-10T12:48:27.704Z,19.73
2022-09-10T12:50:57.945Z,19.58
2022-09-10T12:53:39.635Z,19.61
2022-09-10T12:56:18.213Z,19.87
2022-09-10T12:58:54.260Z,19.84
2022-09-10T13:01:31.771Z,19.95
2022-09-10T13:04:00.367Z,20.21
2022-09-10T13:06:40.769Z,19.95
2022-09-10T13:09:27.821Z,19.99
2022-09-10T13:11:57.070Z,19.73
2022-09-10T13:14:29.033Z,19.60
2022-09-10T13:16:55.846Z,19.54
2022-09-10T13:19:23.525Z,19.56
2022-09-10T13:21:52.145Z,19.60
2022-09-10T13:24:34.399Z,19.75
2022-09-10T13:27:04.133Z,19.90
2022-09-10T13:29:35.010Z,19.92
2022-09-10T13:32:24.810Z,19.79
2022-09-10T13:35:19.660Z,19.53
2022-09-10T13:37:58.723Z,19.32
2022-09-10T13:40:53.218Z,19.00
2022-09-10T13:44:00.963Z,19.41
2022-09-10T13:46:36.973Z,19.23
2022-09-10T13:49:03.509Z,19.39
2022-09-10T13:51:48.223Z,19.39
2022-09-10T13:54:33.187Z,19.50
2022-09-10T13:57:22.731Z,19.38
2022-09-10T13:59:51.777Z,19.34
2022-09-10T14:02:21.407Z,19.45
2022-09-10T14:04:48.202Z,19.18
2022-09-10T14:07:23.347Z,18.89
2022-09-10T14:09:53.307Z,18.74
2022-09-10T14:12:21.469Z,18.86
2022-09-10T14:14:54.924Z,18.77
2022-09-10T14:17:25.742Z,18.94
2022-09-10T14:20:01.474Z,18.55
2022-09-10T14:22:29.047Z,18.54
2022-09-10T14:25:04.847Z,18.55
2022-09-10T14:27:49.025Z,18.22
2022-09-10T14:30:18.335Z,18.29
2022-09-10T14:32:46.218Z,18.36
2022-09-10T14:35:34.619Z,18.26
2022-09-10T14:38:09.138Z,18.14
2022-09-10T14:40:37.092Z,18.17
2022-09-10T14:43:30.198Z,18.14
2022-09-10T14:45:57.140Z,18.34
2022-09-10T14:48:27.979Z,18.38
2022-09-10T14:51:11.002Z,18.20
2022-09-10T14:53:38.314Z,18.06
2022-09-10T14:56:06.533Z,18.11
2022-09-10T14:58:36.253Z,18.19
2022-09-10T15:01:03.650Z,18.25
2022-09-10T15:03:30.312Z,18.27
2022-09-10T15:05:56.891Z,18.18
2022-09-10T15:08:23.447Z,18.06
2022-09-10T15:10:58.458Z,18.16
2022-09-10T15:13:25.145Z,18.15
2022-09-10T15:15:53.727Z,18.18
2022-09-10T15:18:22.702Z,18.18
2022-09-10T15:20:50.497Z,18.07
2022-09-10T15:23:20.652Z,18.06
2022-09-10T15:25:52.564Z,18.00
2022-09-10T15:28:21.653Z,18.02
2022-09-10T15:30:49.455Z,18.28
2022-09-10T15:33:16.117Z,18.27
2022-09-10T15:35:42.728Z,18.45
2022-09-10T15:38:13.145Z,18.54
2022-09-10T15:40:39.743Z,18.63
2022-09-10T15:43:06.641Z,18.55
2022-09-10T15:45:39.880Z,18.57
2022-09-10T15:48:07.189Z,18.65
2022-09-10T15:50:33.761Z,18.78
2022-09-10T15:53:00.472Z,18.83
2022-09-10T15:55:27.678Z,18.80
2022-09-10T15:57:54.418Z,18.72
2022-09-10T16:00:21.122Z,18.68
2022-09-10T16:02:53.025Z,18.70
2022-09-10T16:05:21.079Z,18.54
2022-09-10T16:07:49.817Z,18.31
2022-09-10T16:10:19.062Z,18.28
2022-09-10T16:12:45.619Z,18.24
2022-09-10T16:15:12.279Z,18.15
2022-09-10T16:17:38.847Z,18.00
2022-09-10T16:20:05.812Z,17.86
2022-09-10T16:22:35.428Z,17.75
2022-09-10T16:25:02.132Z,17.35
2022-09-10T16:27:29.560Z,17.24
2022-09-10T16:29:56.246Z,17.24
2022-09-10T16:32:22.902Z,17.13
2022-09-10T16:34:49.468Z,17.15
2022-09-10T16:37:17.373Z,17.17
2022-09-10T16:39:44.042Z,17.15
2022-09-10T16:42:10.819Z,17.09
2022-09-10T16:44:37.580Z,17.06
2022-09-10T16:47:04.216Z,17.04
2022-09-10T16:49:32.425Z,17.04
2022-09-10T16:51:59.407Z,17.04
2022-09-10T16:54:26.594Z,16.98
2022-09-10T16:56:53.838Z,16.91
2022-09-10T16:59:22.585Z,16.98
2022-09-10T17:01:49.993Z,17.05
2022-09-10T17:04:22.363Z,16.88
2022-09-10T17:06:51.419Z,16.81
2022-09-10T17:09:18.054Z,16.65
2022-09-10T17:11:46.927Z,16.55
2022-09-10T17:14:13.523Z,16.50
2022-09-10T17:16:41.432Z,16.52
2022-09-10T17:19:14.522Z,16.53
2022-09-10T17:21:47.326Z,16.46
2022-09-10T17:24:14.247Z,16.32
2022-09-10T17:26:41.404Z,16.25
2022-09-10T17:29:10.376Z,16.19
2022-09-10T17:31:37.188Z,16.15
2022-09-10T17:34:04.191Z,16.11
2022-09-10T17:36:31.130Z,16.05
2022-09-10T17:38:59.212Z,16.08
2022-09-10T17:41:29.524Z,15.97
2022-09-10T17:43:58.183Z,15.88
2022-09-10T17:46:24.901Z,15.83
2022-09-10T17:48:51.782Z,15.73
2022-09-10T17:51:21.480Z,15.71
2022-09-10T17:53:48.472Z,15.70
2022-09-10T17:56:19.001Z,15.64
2022-09-10T17:58:47.216Z,15.56
2022-09-10T18:01:34.631Z,15.46
2022-09-10T18:04:01.559Z,15.41
2022-09-10T18:06:29.151Z,15.36
2022-09-10T18:09:00.581Z,15.33
2022-09-10T18:11:30.135Z,15.32
2022-09-10T18:13:57.782Z,15.33
2022-09-10T18:16:27.114Z,15.28
2022-09-10T18:19:15.893Z,15.26
2022-09-10T18:21:44.878Z,15.26
2022-09-10T18:24:16.861Z,15.20
2022-09-10T18:26:45.438Z,15.17
2022-09-10T18:29:11.910Z,15.18
2022-09-10T18:31:40.677Z,15.13
2022-09-10T18:34:11.453Z,15.11
2022-09-10T18:36:38.082Z,15.11
2022-09-10T18:39:06.882Z,15.07
2022-09-10T18:41:37.981Z,15.01
2022-09-10T18:44:07.983Z,14.98
2022-09-10T18:46:35.619Z,14.96
2022-09-10T18:49:02.667Z,14.96
2022-09-10T18:51:30.652Z,14.95
2022-09-10T18:54:01.735Z,14.96
2022-09-10T18:56:31.042Z,14.95
2022-09-10T18:59:04.901Z,14.92
2022-09-10T19:01:32.425Z,14.89
2022-09-10T19:03:59.088Z,14.90
2022-09-10T19:06:28.822Z,14.88
2022-09-10T19:09:01.280Z,14.85
2022-09-10T19:11:34.258Z,14.82
2022-09-10T19:14:04.642Z,14.82
2022-09-10T19:16:33.156Z,14.83
2022-09-10T19:19:02.502Z,14.81
2022-09-10T19:21:32.853Z,14.79
2022-09-10T19:24:00.741Z,14.79
2022-09-10T19:26:34.909Z,14.85
2022-09-10T19:29:02.376Z,14.88
2022-09-10T19:31:31.375Z,14.92
2022-09-10T19:34:00.785Z,14.95
2022-09-10T19:36:28.330Z,14.96
2022-09-10T19:38:55.129Z,14.92
2022-09-10T19:41:22.439Z,14.93
2022-09-10T19:43:50.865Z,14.96
2022-09-10T19:46:19.210Z,14.95
2022-09-10T19:48:53.094Z,14.97
2022-09-10T19:51:22.539Z,14.96
2022-09-10T19:53:51.942Z,14.98
2022-09-10T19:56:24.284Z,15.01
2022-09-10T19:58:52.146Z,15.09
2022-09-10T20:01:21.382Z,15.11
2022-09-10T20:03:50.489Z,15.16
2022-09-10T20:06:18.969Z,15.24
2022-09-10T20:08:50.532Z,15.30
2022-09-10T20:11:30.076Z,15.26
2022-09-10T20:14:09.775Z,15.18
2022-09-10T20:16:42.455Z,14.97
2022-09-10T20:19:10.935Z,14.85
2022-09-10T20:21:38.283Z,14.62
2022-09-10T20:24:07.128Z,14.63
2022-09-10T20:26:38.131Z,14.51
2022-09-10T20:29:11.502Z,14.44
2022-09-10T20:31:41.304Z,14.42
2022-09-10T20:34:12.169Z,14.40
2022-09-10T20:36:42.306Z,14.38
2022-09-10T20:39:11.368Z,14.32
2022-09-10T20:41:40.002Z,14.29
2022-09-10T20:44:07.760Z,14.14
2022-09-10T20:46:35.014Z,14.03
2022-09-10T20:49:05.713Z,13.93
2022-09-10T20:51:34.788Z,13.79
2022-09-10T20:54:03.256Z,13.67
2022-09-10T20:56:31.472Z,13.63
2022-09-10T20:59:02.095Z,13.60
2022-09-10T21:01:33.500Z,13.51
2022-09-10T21:04:01.622Z,13.49
2022-09-10T21:06:31.182Z,13.47
2022-09-10T21:08:59.423Z,13.39
2022-09-10T21:11:29.383Z,13.34
2022-09-10T21:13:58.232Z,13.27
2022-09-10T21:16:41.489Z,13.27
2022-09-10T21:19:15.278Z,13.21
2022-09-10T21:21:48.983Z,13.13
2022-09-10T21:24:20.214Z,13.10
2022-09-10T21:26:47.553Z,13.06
2022-09-10T21:29:16.999Z,13.03
2022-09-10T21:31:45.221Z,12.99
2022-09-10T21:34:12.564Z,12.96
2022-09-10T21:36:41.230Z,12.97
2022-09-10T21:39:12.492Z,12.93
2022-09-10T21:41:49.838Z,12.92
2022-09-10T21:44:21.957Z,12.94
2022-09-10T21:46:52.385Z,12.92
2022-09-10T21:49:22.839Z,12.90
2022-09-10T21:51:50.191Z,12.93
2022-09-10T21:54:20.640Z,12.88
2022-09-10T21:56:51.572Z,12.84
2022-09-10T21:59:18.658Z,12.93
2022-09-10T22:01:48.848Z,12.93
2022-09-10T22:04:22.571Z,12.94
2022-09-10T22:06:49.893Z,12.98
2022-09-10T22:09:20.751Z,12.95
2022-09-10T22:11:51.262Z,12.95
2022-09-10T22:14:20.938Z,12.92
2022-09-10T22:16:48.162Z,12.88
2022-09-10T22:19:18.894Z,12.87
2022-09-10T22:21:46.291Z,12.86
2022-09-10T22:24:14.657Z,12.81
2022-09-10T22:26:47.404Z,12.83
2022-09-10T22:29:21.782Z,12.86
2022-09-10T22:31:49.509Z,12.75
2022-09-10T22:34:19.814Z,12.74
2022-09-10T22:36:47.562Z,12.70
2022-09-10T22:39:23.472Z,12.68
2022-09-10T22:41:51.290Z,12.67
2022-09-10T22:44:19.352Z,12.72
2022-09-10T22:46:46.338Z,12.70
2022-09-10T22:49:15.947Z,12.66
2022-09-10T22:51:43.441Z,12.77
2022-09-10T22:54:10.806Z,12.77
2022-09-10T22:56:37.768Z,12.80
2022-09-10T22:59:04.746Z,12.88
2022-09-10T23:01:54.924Z,12.91
2022-09-10T23:04:24.306Z,12.94
2022-09-10T23:06:53.676Z,12.95
2022-09-10T23:09:20.353Z,13.02
2022-09-10T23:11:47.044Z,13.08
2022-09-10T23:14:23.821Z,13.11
2022-09-10T23:16:51.835Z,13.12
2022-09-10T23:19:23.192Z,13.16
2022-09-10T23:21:54.470Z,13.26
2022-09-10T23:24:24.258Z,13.23
2022-09-10T23:26:51.212Z,13.18
2022-09-10T23:29:19.202Z,13.18
2022-09-10T23:31:48.297Z,13.11
2022-09-10T23:34:20.057Z,13.14
2022-09-10T23:36:51.797Z,13.07
2022-09-10T23:39:20.805Z,13.11
2022-09-10T23:41:59.860Z,13.15
2022-09-10T23:44:26.893Z,13.14
2022-09-10T23:47:13.148Z,13.09
2022-09-10T23:49:39.763Z,13.12
2022-09-10T23:52:08.830Z,13.18
2022-09-10T23:54:38.887Z,13.17
2022-09-10T23:57:05.579Z,13.20
2022-09-10T23:59:32.186Z,13.25
